Hurlburt Field, FL

5:46 PM CDT on May 30, 2015 (GMT -0500)
Parrish Point | | Change Station
CLOSE
Current Station
Personal Weather Station
Location: Mary Esther, FL
Elevation: 10 ft
Nearby Weather Stations

Elev 10 ft 30.41 °N, 86.75 °W | Updated 3 seconds ago

Partly Cloudy
Partly Cloudy
82.8 °F
Feels Like 89 °F
N
2.0
Wind Variable Wind from North
Gusts 2.0 mph

Today
High -- | Low -- °F
--% Chance of Precip.
Yesterday
High -- | Low -- °F
Precip. -- in
5:45 AM 7:43 PM
Waxing Gibbous, 92% visible
Pressure 30.03 in
Visibility 10.0 miles
Clouds Few 2200 ft
Heat Index 89 °F
Dew Point 73 °F
Humidity 73%
Rainfall 0.00 in
Snow Depth Not available.
UV 4 out of 12
Pollen 4.60 out of 12
Air Quality Not available.
Flu Activity Sporadic
METAR KHRT 302158Z AUTO 18008KT 140V200 10SM FEW022 28/22 A3002 RMK AO2 SLP167 T02840220 $

More Conditions Fewer Conditions

Pressure 30.03 in
Visibility 10.0 miles
Clouds Few 2200 ft
Heat Index 89 °F
Dew Point 73 °F
Humidity 73%
Rainfall 0.00 in
Snow Depth Not available.
UV 4 out of 12
Pollen 4.60 out of 12
Air Quality Not available.
Flu Activity Sporadic
METAR KHRT 302158Z AUTO 18008KT 140V200 10SM FEW022 28/22 A3002 RMK AO2 SLP167 T02840220 $

More Conditions Fewer Conditions

10-Day Weather Forecast

Almanac

Astronomy

May. 30, 2015 Rise Set
Actual Time
Civil Twilight
Nautical Twilight
Astronomical Twilight
Moon
Length of Visible Light
Length of Day
Tomorrow will be .
, % of the Moon is Illuminated

Today's Extremes

State Highs State Lows

Community

WunderPhotos

Upload Photos

1,825,609 photos uploaded!

WunderBlogs® & News

Nearby

Air Quality

  Air Quality AQ Index Pollutant
Not available.

Snow Depth

Station Depth Elevation

Earthquake Activity

City Distance Mag. Time & Date
Minimum magnitude displayed is 2.5.

Coastal Water Temperatures

Place Temperature

Stations

Nearby Weather Stations

Station Location Temp. Windchill Dew Point Humidity Wind Precip. Elev Updated Type